Time;durP1;ratioP1;P1;durP2;ratioP2;P2;SDS_P1;SDS_P2;PMS_P1;PMS_P2;Temp;Humidity;BMP_temperature;BMP_pressure;BME280_temperature;BME280_humidity;BME280_pressure;Samples;Min_cycle;Max_cycle;Signal;HPM_P1;HPM_P2
2022/10/17 00:01:52;;;;;;;9.33;7.77;;;-17.70;99.90;;;;;;5027597;28;20193;-74
2022/10/17 00:04:17;;;;;;;6.37;5.73;;;-16.30;99.90;;;;;;5033653;28;20184;-77
2022/10/17 00:06:43;;;;;;;7.00;6.43;;;-15.30;99.90;;;;;;5038260;28;20180;-78
2022/10/17 00:09:09;;;;;;;7.40;6.70;;;-13.60;99.90;;;;;;5033132;28;20188;-79
2022/10/17 00:11:35;;;;;;;9.00;7.63;;;-16.50;99.90;;;;;;5035416;28;20259;-78
2022/10/17 00:14:01;;;;;;;7.47;6.73;;;-18.10;99.90;;;;;;5019993;28;20650;-77
2022/10/17 00:16:30;;;;;;;8.93;7.43;;;-19.10;99.90;;;;;;5031515;28;20227;-74
2022/10/17 00:18:56;;;;;;;9.20;7.23;;;-24.20;99.90;;;;;;5037751;28;20180;-78
2022/10/17 00:21:23;;;;;;;8.37;7.10;;;-22.00;99.90;;;;;;5037733;28;20600;-77
2022/10/17 00:23:49;;;;;;;7.33;6.63;;;-22.20;99.90;;;;;;5034126;28;20209;-70
2022/10/17 00:26:15;;;;;;;8.90;7.27;;;-21.10;99.90;;;;;;5019704;28;20185;-69
2022/10/17 00:28:44;;;;;;;7.30;6.70;;;-19.60;99.90;;;;;;5019760;28;20206;-79
2022/10/17 00:31:10;;;;;;;10.83;8.20;;;-18.30;99.90;;;;;;5031871;28;20184;-74
2022/10/17 00:33:35;;;;;;;8.23;7.47;;;-19.90;99.90;;;;;;5037330;28;20181;-79
2022/10/17 00:36:12;;;;;;;7.57;6.97;;;-18.50;99.90;;;;;;5037431;28;20177;-73
2022/10/17 00:38:40;;;;;;;12.37;7.20;;;-18.00;99.90;;;;;;5031423;28;20180;-75
2022/10/17 00:41:08;;;;;;;8.20;6.77;;;-18.80;99.90;;;;;;5028302;28;20590;-79
2022/10/17 00:43:50;;;;;;;9.63;7.03;;;-18.30;99.90;;;;;;5035170;28;20300;-70
2022/10/17 00:46:15;;;;;;;12.53;8.57;;;-18.80;99.90;;;;;;5026037;28;20181;-76
2022/10/17 00:48:42;;;;;;;7.20;6.60;;;-22.50;99.90;;;;;;5031519;28;20616;-78
2022/10/17 00:51:08;;;;;;;7.47;6.70;;;-18.40;99.90;;;;;;5029551;28;20180;-73
2022/10/17 00:53:36;;;;;;;10.10;7.70;;;-18.50;99.90;;;;;;5030650;28;20187;-76
2022/10/17 00:56:02;;;;;;;7.60;7.00;;;-20.80;99.90;;;;;;5037046;28;20173;-75
2022/10/17 00:58:28;;;;;;;11.30;8.13;;;-17.90;99.90;;;;;;5046687;28;20607;-76
2022/10/17 01:00:54;;;;;;;9.47;8.00;;;-21.10;99.90;;;;;;5036903;28;20642;-73
2022/10/17 01:03:19;;;;;;;12.83;8.50;;;-20.00;99.90;;;;;;5032705;28;20184;-76
2022/10/17 01:05:45;;;;;;;8.27;7.47;;;-23.60;99.90;;;;;;5029869;28;20192;-79
2022/10/17 01:08:12;;;;;;;8.23;7.57;;;-21.10;99.90;;;;;;5029740;28;20192;-76
2022/10/17 01:11:10;;;;;;;9.23;7.73;;;-21.30;99.90;;;;;;5029582;28;20190;-77
2022/10/17 01:13:43;;;;;;;14.13;7.87;;;-18.30;99.90;;;;;;5031784;28;20196;-75
2022/10/17 01:16:40;;;;;;;10.23;7.33;;;-17.10;99.90;;;;;;5048033;28;20200;-73
2022/10/17 01:19:55;;;;;;;8.33;7.40;;;-18.10;99.90;;;;;;5031602;28;20226;-77
2022/10/17 01:22:20;;;;;;;8.77;7.90;;;-20.70;99.90;;;;;;5031532;28;20207;-75
2022/10/17 01:24:48;;;;;;;9.27;8.20;;;-21.80;99.90;;;;;;5036453;28;20216;-77
2022/10/17 01:27:40;;;;;;;8.30;7.03;;;-22.00;99.90;;;;;;5024675;28;20185;-76
2022/10/17 01:30:20;;;;;;;15.60;8.37;;;-22.80;99.90;;;;;;5019702;28;20593;-76
2022/10/17 01:32:53;;;;;;;8.13;7.37;;;-25.30;99.90;;;;;;5025991;28;20192;-76
2022/10/17 01:35:28;;;;;;;9.47;8.67;;;-18.00;99.90;;;;;;5045694;28;20209;-76
2022/10/17 01:38:17;;;;;;;10.40;7.93;;;-22.20;99.90;;;;;;5046910;28;20175;-78
2022/10/17 01:41:05;;;;;;;9.47;8.17;;;-21.00;99.90;;;;;;5036389;28;20212;-73
2022/10/17 01:43:53;;;;;;;8.40;7.67;;;-18.50;99.90;;;;;;5017832;28;20204;-78
2022/10/17 01:46:32;;;;;;;9.67;8.00;;;-24.20;99.90;;;;;;5028164;28;20479;-80
2022/10/17 01:49:00;;;;;;;11.33;8.00;;;-19.70;99.90;;;;;;5030814;28;20195;-76
2022/10/17 01:51:34;;;;;;;10.70;7.97;;;-17.20;99.90;;;;;;5042424;28;20187;-77
2022/10/17 01:54:11;;;;;;;10.80;8.43;;;-19.00;99.90;;;;;;5035913;28;20199;-75
2022/10/17 01:56:38;;;;;;;8.60;7.93;;;-19.60;99.90;;;;;;5051549;28;20234;-77
2022/10/17 01:59:16;;;;;;;9.13;8.37;;;-22.30;99.90;;;;;;5046907;28;20484;-80
2022/10/17 02:01:44;;;;;;;13.27;8.87;;;-23.20;99.90;;;;;;5016898;28;20211;-77
2022/10/17 02:04:10;;;;;;;10.93;9.23;;;-23.30;99.90;;;;;;5023151;28;20600;-77
2022/10/17 02:06:36;;;;;;;11.10;9.13;;;-23.80;99.90;;;;;;5024310;28;20253;-74
2022/10/17 02:09:25;;;;;;;11.77;9.33;;;-24.70;99.90;;;;;;5034858;28;20275;-73
2022/10/17 02:12:06;;;;;;;8.73;7.93;;;-29.20;99.90;;;;;;5029711;28;20191;-76
2022/10/17 02:14:49;;;;;;;12.13;9.07;;;-22.40;99.90;;;;;;5028845;28;20227;-77
2022/10/17 02:17:26;;;;;;;13.17;9.03;;;-20.60;99.90;;;;;;5032200;28;20187;-77
2022/10/17 02:19:56;;;;;;;9.23;8.33;;;-20.50;99.90;;;;;;5023675;28;20207;-74
2022/10/17 02:22:54;;;;;;;9.87;8.00;;;-20.20;99.90;;;;;;5032644;28;20200;-76
2022/10/17 02:25:52;;;;;;;16.87;9.03;;;-19.40;99.90;;;;;;5033417;28;20538;-71
2022/10/17 02:28:28;;;;;;;9.80;8.03;;;-18.30;99.90;;;;;;5021940;28;20197;-79
2022/10/17 02:30:56;;;;;;;11.70;8.23;;;-22.00;99.90;;;;;;5027973;28;20502;-75
2022/10/17 02:33:34;;;;;;;14.00;9.07;;;-21.30;99.90;;;;;;5045001;28;20533;-77
2022/10/17 02:36:06;;;;;;;10.40;7.87;;;-22.90;99.90;;;;;;5027802;28;20175;-76
2022/10/17 02:38:33;;;;;;;14.27;7.93;;;-23.00;99.90;;;;;;5021653;28;20189;-76
2022/10/17 02:41:00;;;;;;;12.10;7.97;;;-27.10;99.90;;;;;;5035496;28;20667;-74
2022/10/17 02:43:27;;;;;;;11.03;8.43;;;-22.70;99.90;;;;;;5031645;28;20488;-78
2022/10/17 02:45:53;;;;;;;11.67;8.77;;;-21.60;99.90;;;;;;5051270;28;20234;-76
2022/10/17 02:48:39;;;;;;;9.10;8.30;;;-23.40;99.90;;;;;;5031497;28;20182;-74
2022/10/17 02:51:41;;;;;;;11.63;8.53;;;-26.10;99.90;;;;;;5023585;28;20189;-75
2022/10/17 02:54:48;;;;;;;14.40;8.73;;;-22.40;99.90;;;;;;5025829;28;20250;-74
2022/10/17 02:57:20;;;;;;;10.40;8.50;;;-26.50;99.90;;;;;;5027272;28;20671;-80
2022/10/17 02:59:46;;;;;;;9.27;8.20;;;-20.50;99.90;;;;;;5030106;28;20223;-79
2022/10/17 03:02:12;;;;;;;9.67;7.77;;;-18.50;99.90;;;;;;5035344;28;20203;-78
2022/10/17 03:04:42;;;;;;;13.33;8.77;;;-22.30;99.90;;;;;;5050584;28;20502;-77
2022/10/17 03:07:07;;;;;;;10.53;8.57;;;-19.50;99.90;;;;;;5017720;28;20593;-79
2022/10/17 03:09:33;;;;;;;14.97;8.33;;;-22.20;99.90;;;;;;5033970;28;20195;-80
2022/10/17 03:11:59;;;;;;;10.07;8.63;;;-20.60;99.90;;;;;;5035902;28;20268;-79
2022/10/17 03:14:24;;;;;;;12.33;9.77;;;-20.60;99.90;;;;;;5036367;28;20212;-79
2022/10/17 03:16:50;;;;;;;14.07;9.17;;;-20.60;99.90;;;;;;5028946;28;20267;-76
2022/10/17 03:19:16;;;;;;;8.90;8.00;;;-18.50;99.90;;;;;;5023962;28;20239;-78
2022/10/17 03:21:41;;;;;;;13.57;8.80;;;-18.70;99.90;;;;;;5027996;28;20210;-78
2022/10/17 03:24:07;;;;;;;10.50;8.27;;;-20.50;99.90;;;;;;5031993;28;20182;-80
2022/10/17 03:26:33;;;;;;;8.50;7.70;;;-22.00;99.90;;;;;;5031041;28;20600;-76
2022/10/17 03:28:59;;;;;;;10.67;8.63;;;-21.90;99.90;;;;;;5035538;28;20192;-75
2022/10/17 03:31:24;;;;;;;10.53;8.90;;;-21.90;99.90;;;;;;5024706;28;20177;-78
2022/10/17 03:33:50;;;;;;;9.27;8.17;;;-21.20;99.90;;;;;;5029999;28;20243;-77
2022/10/17 03:36:17;;;;;;;14.63;8.50;;;-28.80;99.90;;;;;;5027019;28;20183;-77
2022/10/17 03:38:45;;;;;;;10.33;8.17;;;-25.60;99.90;;;;;;5032232;28;20176;-76
2022/10/17 03:41:11;;;;;;;8.53;7.77;;;-26.10;99.90;;;;;;5036846;28;20589;-79
2022/10/17 03:43:38;;;;;;;8.50;7.63;;;-25.10;99.90;;;;;;5038780;28;20180;-73
2022/10/17 03:46:04;;;;;;;10.07;8.83;;;-25.80;99.90;;;;;;5038141;28;20173;-75
2022/10/17 03:48:31;;;;;;;7.23;6.53;;;-24.90;99.90;;;;;;5037999;28;20189;-77
2022/10/17 03:51:03;;;;;;;8.77;7.77;;;-23.30;99.90;;;;;;5029629;28;20181;-78
2022/10/17 03:53:29;;;;;;;12.47;7.87;;;-22.60;99.90;;;;;;5022883;28;20211;-79
2022/10/17 03:55:55;;;;;;;11.33;8.10;;;-23.20;99.90;;;;;;5030695;28;20236;-79
2022/10/17 03:58:21;;;;;;;14.17;8.73;;;-20.60;99.90;;;;;;5038427;28;20268;-74
2022/10/17 04:00:47;;;;;;;11.10;7.67;;;-18.80;99.90;;;;;;5037971;28;22115;-77
2022/10/17 04:03:12;;;;;;;7.80;7.03;;;-19.20;99.90;;;;;;5035810;28;20180;-78
2022/10/17 04:05:38;;;;;;;10.23;7.27;;;-20.50;99.90;;;;;;5052634;28;20592;-73
2022/10/17 04:08:04;;;;;;;11.63;6.90;;;-22.10;99.90;;;;;;5027522;28;20189;-74
2022/10/17 04:10:30;;;;;;;11.03;8.17;;;-21.30;99.90;;;;;;5032314;28;20268;-73
2022/10/17 04:12:55;;;;;;;10.43;9.43;;;-18.10;99.90;;;;;;5038020;28;20615;-74
2022/10/17 04:15:21;;;;;;;11.93;9.13;;;-17.80;99.90;;;;;;5053318;28;20204;-78
2022/10/17 04:17:47;;;;;;;8.87;7.83;;;-18.50;99.90;;;;;;5033207;28;20180;-72
2022/10/17 04:20:13;;;;;;;11.43;7.70;;;-19.60;99.90;;;;;;5029343;28;20490;-74
2022/10/17 04:22:38;;;;;;;14.77;9.10;;;-20.90;99.90;;;;;;5031501;28;20181;-73
2022/10/17 04:25:05;;;;;;;9.00;7.30;;;-17.90;99.90;;;;;;5025508;28;20209;-75
2022/10/17 04:27:30;;;;;;;9.37;7.67;;;-20.20;99.90;;;;;;5024612;28;20185;-76
2022/10/17 04:29:56;;;;;;;15.03;8.20;;;-18.90;99.90;;;;;;5033956;28;20459;-74
2022/10/17 04:32:22;;;;;;;11.57;9.47;;;-16.40;99.90;;;;;;5032925;28;20271;-80
2022/10/17 04:34:49;;;;;;;11.43;8.20;;;-15.50;99.90;;;;;;5034348;28;20322;-76
2022/10/17 04:37:15;;;;;;;12.40;8.90;;;-18.90;99.90;;;;;;5033299;28;20184;-79
2022/10/17 04:39:40;;;;;;;10.33;9.20;;;-15.90;99.90;;;;;;5032839;28;20589;-78
2022/10/17 04:42:06;;;;;;;14.37;8.57;;;-16.90;99.90;;;;;;5026178;28;20186;-79
2022/10/17 04:44:34;;;;;;;10.20;8.03;;;-22.50;99.90;;;;;;5035954;28;20193;-76
2022/10/17 04:47:00;;;;;;;10.33;8.83;;;-19.40;99.90;;;;;;5030429;28;20188;-77
2022/10/17 04:49:25;;;;;;;10.30;9.30;;;-17.90;99.90;;;;;;5033061;28;21815;-74
2022/10/17 04:51:51;;;;;;;12.40;8.60;;;-17.90;99.90;;;;;;5037122;28;20412;-76
2022/10/17 04:54:17;;;;;;;10.93;9.83;;;-18.20;99.90;;;;;;5036966;28;20216;-74
2022/10/17 04:56:43;;;;;;;12.00;7.90;;;-20.10;99.90;;;;;;5037204;28;20728;-77
2022/10/17 04:59:08;;;;;;;9.33;8.43;;;-17.80;99.90;;;;;;5037122;28;20191;-75
2022/10/17 05:01:34;;;;;;;10.10;7.37;;;-15.90;99.90;;;;;;5036898;28;20216;-78
2022/10/17 05:04:00;;;;;;;13.27;8.37;;;-17.30;99.90;;;;;;5034409;28;20192;-79
2022/10/17 05:06:30;;;;;;;11.50;7.20;;;-13.60;99.90;;;;;;5029924;28;20234;-80
2022/10/17 05:08:57;;;;;;;8.77;7.73;;;-13.70;99.90;;;;;;5045419;28;20231;-80
2022/10/17 05:11:28;;;;;;;7.53;6.80;;;-16.30;99.90;;;;;;5027018;28;20180;-75
2022/10/17 05:13:59;;;;;;;7.83;7.03;;;-20.40;99.90;;;;;;5025501;28;20208;-74
2022/10/17 05:16:26;;;;;;;7.60;6.90;;;-15.50;99.90;;;;;;5032208;28;20208;-79
2022/10/17 05:18:55;;;;;;;12.20;8.13;;;-15.60;99.90;;;;;;5036734;28;20203;-78
2022/10/17 05:21:23;;;;;;;10.87;7.40;;;-16.10;99.90;;;;;;5024123;28;20641;-80
2022/10/17 05:23:49;;;;;;;8.03;6.57;;;-16.60;99.90;;;;;;5031102;28;20185;-77
2022/10/17 05:26:15;;;;;;;8.53;7.63;;;-17.00;99.90;;;;;;5030773;28;20188;-74
2022/10/17 05:28:41;;;;;;;7.53;6.70;;;-15.50;99.90;;;;;;5033174;28;20243;-80
2022/10/17 05:31:08;;;;;;;13.77;7.03;;;-16.90;99.90;;;;;;5029540;28;20482;-78
2022/10/17 05:33:35;;;;;;;9.37;6.50;;;-17.20;99.90;;;;;;5051567;28;21865;-75
2022/10/17 05:36:01;;;;;;;7.33;6.60;;;-15.10;99.90;;;;;;5032575;28;20633;-77
2022/10/17 05:38:27;;;;;;;9.50;7.93;;;-18.50;99.90;;;;;;5033653;28;20188;-76
2022/10/17 05:41:11;;;;;;;8.30;6.77;;;-14.50;99.90;;;;;;5022068;28;20181;-77
2022/10/17 05:43:37;;;;;;;6.83;6.23;;;-16.10;99.90;;;;;;5028700;28;20506;-73
2022/10/17 05:46:04;;;;;;;10.77;6.17;;;-22.10;99.90;;;;;;5034777;28;20207;-78
2022/10/17 05:48:30;;;;;;;11.87;6.43;;;-20.90;99.90;;;;;;5024892;28;20200;-77
2022/10/17 05:51:01;;;;;;;10.07;5.70;;;-20.60;99.90;;;;;;5031838;28;20459;-77
2022/10/17 05:53:31;;;;;;;7.40;5.67;;;-17.30;99.90;;;;;;5029862;28;20189;-76
2022/10/17 05:56:01;;;;;;;9.37;7.17;;;-17.50;99.90;;;;;;5022582;28;20201;-77
2022/10/17 05:58:27;;;;;;;6.87;6.07;;;-26.20;99.90;;;;;;5030483;28;20185;-77
2022/10/17 06:01:02;;;;;;;11.97;6.73;;;-24.80;99.90;;;;;;5034754;28;20612;-79
2022/10/17 06:03:28;;;;;;;7.03;6.33;;;-21.20;99.90;;;;;;5035753;28;20195;-71
2022/10/17 06:05:54;;;;;;;6.60;5.93;;;-26.00;99.90;;;;;;5031306;28;20180;-78
2022/10/17 06:08:20;;;;;;;7.93;6.20;;;-29.60;99.90;;;;;;5017588;28;20181;-75
2022/10/17 06:10:49;;;;;;;8.03;6.30;;;-22.50;99.90;;;;;;5030766;28;20585;-78
2022/10/17 06:13:16;;;;;;;7.53;5.70;;;-24.50;99.90;;;;;;5032997;28;20185;-78
2022/10/17 06:15:43;;;;;;;9.47;5.70;;;-26.90;99.90;;;;;;5032538;28;20212;-73
2022/10/17 06:18:09;;;;;;;8.60;5.80;;;-21.80;99.90;;;;;;5034408;28;20181;-77
2022/10/17 06:20:35;;;;;;;10.20;6.37;;;-21.10;99.90;;;;;;5027440;28;20180;-77
2022/10/17 06:23:00;;;;;;;8.10;5.30;;;-20.20;99.90;;;;;;5035868;28;20502;-78
2022/10/17 06:25:29;;;;;;;7.77;6.20;;;-21.60;99.90;;;;;;5044117;28;20184;-77
2022/10/17 06:27:55;;;;;;;11.20;7.30;;;-23.50;99.90;;;;;;5030287;28;20206;-75
2022/10/17 06:30:20;;;;;;;7.63;6.23;;;-24.40;99.90;;;;;;5029939;28;20223;-75
2022/10/17 06:32:46;;;;;;;6.43;5.70;;;-19.50;99.90;;;;;;5031691;28;20596;-77
2022/10/17 06:35:12;;;;;;;7.67;5.23;;;-23.20;99.90;;;;;;5027797;28;20208;-77
2022/10/17 06:37:38;;;;;;;10.73;6.60;;;-25.90;99.90;;;;;;5031748;28;20182;-77
2022/10/17 06:40:04;;;;;;;6.97;5.33;;;-29.90;99.90;;;;;;5035674;28;20244;-77
2022/10/17 06:42:30;;;;;;;15.40;6.87;;;-34.80;99.90;;;;;;5033796;28;20610;-76
2022/10/17 06:44:56;;;;;;;5.60;5.10;;;-36.60;99.90;;;;;;5031523;28;20180;-78
2022/10/17 06:47:21;;;;;;;7.30;6.43;;;-40.00;99.90;;;;;;5035749;28;20192;-77
2022/10/17 06:49:47;;;;;;;8.53;5.10;;;-40.00;99.90;;;;;;5030358;28;20271;-77
2022/10/17 06:52:13;;;;;;;6.70;4.93;;;-40.00;99.90;;;;;;5048270;28;20193;-77
2022/10/17 06:54:39;;;;;;;6.03;4.77;;;-40.00;99.90;;;;;;5023672;28;20217;-78
2022/10/17 06:57:05;;;;;;;8.07;5.43;;;-40.00;99.90;;;;;;5022709;28;20177;-74
2022/10/17 06:59:31;;;;;;;6.43;4.30;;;-40.00;99.90;;;;;;5033775;28;20189;-76
2022/10/17 07:01:56;;;;;;;9.00;5.50;;;-40.00;99.90;;;;;;5043870;28;20200;-75
2022/10/17 07:04:22;;;;;;;8.00;5.03;;;-40.00;99.90;;;;;;5024607;28;20193;-77
2022/10/17 07:06:48;;;;;;;8.20;4.40;;;-40.00;99.90;;;;;;5035294;28;20176;-76
2022/10/17 07:09:14;;;;;;;8.03;5.23;;;-40.00;99.90;;;;;;5032302;28;20283;-78
2022/10/17 07:11:39;;;;;;;4.10;3.70;;;-40.00;99.90;;;;;;5025368;28;20195;-78
2022/10/17 07:14:05;;;;;;;20.87;5.47;;;-32.60;99.90;;;;;;5025767;28;20201;-77
2022/10/17 07:16:33;;;;;;;4.77;4.30;;;-37.90;99.90;;;;;;5031529;28;20259;-74
2022/10/17 07:18:58;;;;;;;8.07;3.30;;;-38.90;99.90;;;;;;5032613;28;20230;-79
2022/10/17 07:21:24;;;;;;;6.33;4.10;;;-34.90;99.90;;;;;;5032783;28;20227;-74
2022/10/17 07:23:50;;;;;;;5.73;4.87;;;-37.90;99.90;;;;;;5024889;28;20177;-76
2022/10/17 07:26:17;;;;;;;4.90;4.23;;;-40.00;99.90;;;;;;5020615;28;20189;-76
2022/10/17 07:28:45;;;;;;;6.80;4.40;;;-35.70;99.90;;;;;;5025155;28;20603;-69
2022/10/17 07:31:17;;;;;;;5.90;4.43;;;-32.50;99.90;;;;;;5024255;28;20208;-70
2022/10/17 07:33:43;;;;;;;9.40;4.70;;;-32.90;99.90;;;;;;5030874;28;20184;-69
2022/10/17 07:36:10;;;;;;;9.60;4.27;;;-29.00;99.90;;;;;;5038178;28;20196;-70
2022/10/17 07:38:36;;;;;;;4.87;4.47;;;-32.50;99.90;;;;;;5038701;28;20181;-70
2022/10/17 07:41:04;;;;;;;5.87;4.87;;;-32.40;99.90;;;;;;5032698;28;20191;-69
2022/10/17 07:43:31;;;;;;;5.73;4.57;;;-32.00;99.90;;;;;;5038589;28;20199;-76
2022/10/17 07:45:57;;;;;;;5.67;5.07;;;-31.50;99.90;;;;;;5031182;28;20552;-74
2022/10/17 07:48:24;;;;;;;10.83;5.93;;;-28.70;99.90;;;;;;5034202;28;20204;-69
2022/10/17 07:50:50;;;;;;;5.30;4.73;;;-31.60;99.90;;;;;;5034606;28;20183;-68
2022/10/17 07:53:16;;;;;;;5.87;5.40;;;-26.50;99.90;;;;;;5034465;28;20180;-68
2022/10/17 07:55:43;;;;;;;12.97;6.00;;;-30.60;99.90;;;;;;5028901;28;20219;-72
2022/10/17 07:58:09;;;;;;;8.97;5.43;;;-30.80;99.90;;;;;;5038421;28;20184;-70
2022/10/17 08:00:38;;;;;;;11.60;5.53;;;-32.80;99.90;;;;;;5023550;28;20205;-68
2022/10/17 08:03:05;;;;;;;14.83;7.00;;;-33.20;99.90;;;;;;5027826;28;20177;-78
2022/10/17 08:05:31;;;;;;;7.63;6.03;;;-32.70;99.90;;;;;;5025403;28;20209;-76
2022/10/17 08:07:57;;;;;;;8.87;5.80;;;-31.60;99.90;;;;;;5032195;28;20185;-76
2022/10/17 08:10:26;;;;;;;8.33;5.50;;;-40.00;99.90;;;;;;5037308;28;20195;-75
2022/10/17 08:12:56;;;;;;;6.07;5.50;;;-32.80;99.90;;;;;;5037986;28;20199;-78
2022/10/17 08:15:23;;;;;;;7.13;6.13;;;-27.20;99.90;;;;;;5033356;28;20271;-72
2022/10/17 08:17:49;;;;;;;11.47;7.53;;;-27.30;99.90;;;;;;5032306;28;20188;-76
2022/10/17 08:20:15;;;;;;;8.90;6.13;;;-30.70;99.90;;;;;;5037606;28;20179;-70
2022/10/17 08:22:41;;;;;;;7.70;6.53;;;-31.00;99.90;;;;;;5035431;28;20177;-77
2022/10/17 08:25:07;;;;;;;7.47;6.67;;;-28.50;99.90;;;;;;5030156;28;20585;-78
2022/10/17 08:27:34;;;;;;;9.10;7.77;;;-30.00;99.90;;;;;;5020369;28;20236;-75
2022/10/17 08:30:00;;;;;;;12.37;6.57;;;-25.40;99.90;;;;;;5019568;28;20273;-78
2022/10/17 08:32:28;;;;;;;11.73;7.10;;;-24.80;99.90;;;;;;5033648;28;20268;-78
2022/10/17 08:34:54;;;;;;;9.53;8.07;;;-29.70;99.90;;;;;;5037613;28;20254;-75
2022/10/17 08:37:21;;;;;;;7.77;7.13;;;-29.60;99.90;;;;;;5037640;28;20207;-73
2022/10/17 08:39:47;;;;;;;9.70;7.50;;;-40.00;99.90;;;;;;5037572;28;20177;-77
2022/10/17 08:42:38;;;;;;;14.87;7.50;;;-40.00;99.90;;;;;;5032751;28;20191;-71
2022/10/17 08:45:19;;;;;;;8.70;6.70;;;-38.60;99.90;;;;;;5028078;28;20178;-77
2022/10/17 08:47:51;;;;;;;10.17;7.77;;;-39.30;99.90;;;;;;5024704;28;20251;-74
2022/10/17 08:50:55;;;;;;;7.50;6.80;;;-39.10;99.90;;;;;;5029685;28;20200;-71
2022/10/17 08:53:55;;;;;;;7.20;6.07;;;-40.00;99.90;;;;;;5032330;28;20184;-72
2022/10/17 08:56:25;;;;;;;7.90;7.13;;;-39.70;99.90;;;;;;5028629;28;20603;-69
2022/10/17 08:58:51;;;;;;;9.77;6.83;;;-38.50;99.90;;;;;;5031038;28;20192;-77
2022/10/17 09:01:41;;;;;;;9.80;6.43;;;-40.00;99.90;;;;;;5029874;28;20216;-75
2022/10/17 09:04:34;;;;;;;9.93;6.13;;;-34.30;99.90;;;;;;5022482;28;20188;-72
2022/10/17 09:07:07;;;;;;;10.83;6.07;;;-33.60;99.90;;;;;;5044433;28;20239;-74
2022/10/17 09:09:49;;;;;;;11.40;6.87;;;-33.30;99.90;;;;;;5046966;28;20188;-74
2022/10/17 09:12:27;;;;;;;7.53;5.87;;;-33.70;99.90;;;;;;5031849;28;20263;-70
2022/10/17 09:15:28;;;;;;;7.40;6.70;;;-37.50;99.90;;;;;;5030253;28;20291;-75
2022/10/17 09:18:31;;;;;;;6.47;5.87;;;-33.60;99.90;;;;;;5023379;28;20176;-75
2022/10/17 09:21:20;;;;;;;6.80;6.20;;;-40.00;99.90;;;;;;5026096;28;20220;-70
2022/10/17 09:23:48;;;;;;;6.13;5.60;;;-36.30;99.90;;;;;;5036487;28;20184;-76
2022/10/17 09:26:14;;;;;;;5.67;5.17;;;-35.90;99.90;;;;;;5036504;28;20185;-77
2022/10/17 09:28:42;;;;;;;35.60;6.60;;;-33.20;99.90;;;;;;5032349;28;20250;-70
2022/10/17 09:31:18;;;;;;;8.07;5.93;;;-32.30;99.90;;;;;;5017477;28;20182;-71
2022/10/17 09:33:49;;;;;;;8.17;7.07;;;-31.50;99.90;;;;;;5032542;28;20645;-75
2022/10/17 09:36:21;;;;;;;13.67;6.97;;;-28.50;99.90;;;;;;5036478;28;20189;-75
2022/10/17 09:38:56;;;;;;;7.73;6.80;;;-34.20;99.90;;;;;;5032874;28;20616;-75
2022/10/17 09:41:33;;;;;;;9.90;6.77;;;-36.80;99.90;;;;;;5030005;28;20584;-74
2022/10/17 09:44:11;;;;;;;8.90;7.23;;;-40.00;99.90;;;;;;5046695;28;20180;-72
2022/10/17 09:46:38;;;;;;;12.50;6.30;;;-40.00;99.90;;;;;;5047156;28;20180;-78
2022/10/17 09:49:15;;;;;;;8.10;6.70;;;-40.00;99.90;;;;;;5024520;28;20203;-75
2022/10/17 09:51:42;;;;;;;8.90;7.33;;;-38.80;99.90;;;;;;5026107;28;20174;-76
2022/10/17 09:54:25;;;;;;;12.03;6.83;;;-35.00;99.90;;;;;;5030350;28;20757;-77
2022/10/17 09:57:05;;;;;;;7.37;6.63;;;-40.00;99.90;;;;;;5032179;28;20203;-75
2022/10/17 09:59:40;;;;;;;9.07;7.03;;;-39.50;99.90;;;;;;5032698;28;20173;-74
2022/10/17 10:02:17;;;;;;;6.90;6.30;;;-40.00;99.90;;;;;;5036318;28;20199;-77
2022/10/17 10:05:16;;;;;;;11.47;6.50;;;-40.00;99.90;;;;;;5043937;28;20192;-75
2022/10/17 10:07:59;;;;;;;10.37;7.50;;;-40.00;99.90;;;;;;5029982;28;20195;-76
2022/10/17 10:10:28;;;;;;;10.43;8.03;;;-40.00;99.90;;;;;;5022725;28;20191;-78
2022/10/17 10:13:19;;;;;;;7.83;6.83;;;-40.00;99.90;;;;;;5026546;28;20736;-76
2022/10/17 10:15:49;;;;;;;8.03;7.30;;;-40.00;99.90;;;;;;5035810;28;20299;-76
2022/10/17 10:18:31;;;;;;;9.23;7.17;;;-40.00;99.90;;;;;;5035643;28;20246;-71
2022/10/17 10:21:08;;;;;;;12.60;8.03;;;-40.00;99.90;;;;;;5034767;28;20176;-69
2022/10/17 10:23:38;;;;;;;7.90;7.13;;;-40.00;99.90;;;;;;5017608;28;20183;-70
2022/10/17 10:26:10;;;;;;;13.37;8.57;;;-40.00;99.90;;;;;;5018344;28;20181;-69
2022/10/17 10:28:37;;;;;;;7.70;6.97;;;-40.00;99.90;;;;;;5016583;28;20173;-73
2022/10/17 10:31:07;;;;;;;8.03;7.33;;;-40.00;99.90;;;;;;5030145;28;20203;-71
2022/10/17 10:33:36;;;;;;;13.57;8.47;;;-40.00;99.90;;;;;;5022777;28;20184;-73
2022/10/17 10:36:06;;;;;;;10.67;7.10;;;-40.00;99.90;;;;;;5026534;28;20231;-70
2022/10/17 10:38:34;;;;;;;12.90;6.90;;;-40.00;99.90;;;;;;5025750;28;20173;-73
2022/10/17 10:41:08;;;;;;;12.83;7.97;;;-40.00;99.90;;;;;;5035530;28;20177;-69
2022/10/17 10:43:40;;;;;;;8.07;6.37;;;-40.00;99.90;;;;;;5016703;28;20239;-71
2022/10/17 10:46:20;;;;;;;9.37;6.57;;;-40.00;99.90;;;;;;5027260;28;20176;-75
2022/10/17 10:48:50;;;;;;;9.80;6.93;;;-40.00;99.90;;;;;;5027515;28;20177;-69
2022/10/17 10:51:22;;;;;;;12.10;6.40;;;-40.00;99.90;;;;;;5033393;28;20192;-70
2022/10/17 10:53:56;;;;;;;15.53;6.30;;;-40.00;99.90;;;;;;5028687;28;20215;-70
2022/10/17 10:56:37;;;;;;;14.03;7.10;;;-40.00;99.90;;;;;;5038370;28;20530;-73
2022/10/17 10:59:17;;;;;;;30.23;7.37;;;-40.00;99.90;;;;;;5039391;28;20207;-72
2022/10/17 11:02:06;;;;;;;7.40;6.70;;;-40.00;99.90;;;;;;5031576;28;20208;-68
2022/10/17 11:04:43;;;;;;;6.23;5.63;;;-40.00;99.90;;;;;;5032707;28;20218;-72
2022/10/17 11:07:18;;;;;;;7.33;5.53;;;-40.00;99.90;;;;;;5038657;28;20573;-72
2022/10/17 11:10:04;;;;;;;6.37;5.27;;;-40.00;99.90;;;;;;5032860;28;20179;-70
2022/10/17 11:12:33;;;;;;;8.43;6.00;;;-40.00;99.90;;;;;;5035609;28;20180;-71
2022/10/17 11:15:24;;;;;;;7.33;5.67;;;-40.00;99.90;;;;;;5038593;28;20227;-76
2022/10/17 11:18:02;;;;;;;6.50;5.90;;;-40.00;99.90;;;;;;5031295;28;20207;-73
2022/10/17 11:20:46;;;;;;;15.40;6.70;;;-40.00;99.90;;;;;;5047345;28;20187;-73
2022/10/17 11:23:39;;;;;;;6.97;6.13;;;-40.00;99.90;;;;;;5027455;28;20189;-68
2022/10/17 11:26:09;;;;;;;8.43;5.83;;;-40.00;99.90;;;;;;5037244;28;20234;-70
2022/10/17 11:28:35;;;;;;;6.13;5.00;;;-40.00;99.90;;;;;;5039023;28;20490;-71
2022/10/17 11:31:08;;;;;;;6.70;5.27;;;-40.00;99.90;;;;;;5030105;28;20288;-69
2022/10/17 11:33:43;;;;;;;7.17;5.97;;;-40.00;99.90;;;;;;5027296;28;20209;-74
2022/10/17 11:36:09;;;;;;;7.57;5.47;;;-40.00;99.90;;;;;;5038607;28;20258;-70
2022/10/17 11:38:50;;;;;;;6.37;5.63;;;-40.00;99.90;;;;;;5027563;28;20176;-71
2022/10/17 11:41:39;;;;;;;11.00;5.97;;;-40.00;99.90;;;;;;5026313;28;20611;-72
2022/10/17 11:44:14;;;;;;;7.70;5.97;;;-40.00;99.90;;;;;;5032490;28;20191;-70
2022/10/17 11:46:41;;;;;;;14.23;6.47;;;-40.00;99.90;;;;;;5024997;28;20176;-71
2022/10/17 11:49:43;;;;;;;6.87;5.50;;;-40.00;99.90;;;;;;5038712;28;20222;-71
2022/10/17 11:52:29;;;;;;;9.27;7.67;;;-40.00;99.90;;;;;;5016008;28;20208;-69
2022/10/17 11:54:59;;;;;;;9.73;6.87;;;-40.00;99.90;;;;;;5038048;28;20215;-69
2022/10/17 11:57:44;;;;;;;6.73;6.07;;;-40.00;99.90;;;;;;5031759;28;20192;-71
2022/10/17 12:00:44;;;;;;;15.53;7.40;;;-40.00;99.90;;;;;;5033674;28;20197;-73
2022/10/17 12:03:28;;;;;;;12.20;6.80;;;-40.00;99.90;;;;;;5026946;28;20192;-70
2022/10/17 12:06:03;;;;;;;6.60;6.00;;;-40.00;99.90;;;;;;5046356;28;20189;-75
2022/10/17 12:08:58;;;;;;;9.40;6.43;;;-40.00;99.90;;;;;;5036936;28;20664;-76
2022/10/17 12:11:36;;;;;;;12.50;7.77;;;-40.00;99.90;;;;;;5020839;28;20197;-70
2022/10/17 12:14:02;;;;;;;12.83;7.23;;;-40.00;99.90;;;;;;5035224;28;20184;-70
2022/10/17 12:16:33;;;;;;;9.80;6.17;;;-40.00;99.90;;;;;;5037983;28;20184;-69
2022/10/17 12:19:05;;;;;;;10.33;6.53;;;-40.00;99.90;;;;;;5037935;28;20181;-70
2022/10/17 12:21:54;;;;;;;7.73;6.93;;;-40.00;99.90;;;;;;5037515;28;20244;-73
2022/10/17 12:24:42;;;;;;;8.20;7.00;;;-40.00;99.90;;;;;;5030336;28;20242;-70
2022/10/17 12:27:35;;;;;;;7.53;6.47;;;-40.00;99.90;;;;;;5029755;28;20644;-72
2022/10/17 12:30:24;;;;;;;8.37;6.87;;;-40.00;99.90;;;;;;5032403;28;20195;-69
2022/10/17 12:33:33;;;;;;;18.40;9.27;;;-40.00;99.90;;;;;;5032424;28;20204;-72
2022/10/17 12:36:25;;;;;;;8.43;7.27;;;-40.00;99.90;;;;;;5015448;28;20213;-71
2022/10/17 12:39:13;;;;;;;8.37;7.57;;;-40.00;99.90;;;;;;5001686;28;20280;-73
2022/10/17 12:41:39;;;;;;;7.07;6.47;;;-40.00;99.90;;;;;;5021144;28;20196;-70
2022/10/17 12:44:14;;;;;;;9.07;6.93;;;-40.00;99.90;;;;;;5030082;28;20628;-70
2022/10/17 12:47:01;;;;;;;11.77;9.00;;;-40.00;99.90;;;;;;5027940;28;20192;-69
2022/10/17 12:49:52;;;;;;;9.73;8.47;;;-40.00;99.90;;;;;;5033989;28;20198;-69
2022/10/17 12:52:46;;;;;;;9.07;8.00;;;-40.00;99.90;;;;;;5018976;28;20196;-69
2022/10/17 12:55:16;;;;;;;7.73;7.00;;;-40.00;99.90;;;;;;5025539;28;20248;-68
2022/10/17 12:57:48;;;;;;;11.27;7.20;;;-40.00;99.90;;;;;;5030845;28;20185;-76
2022/10/17 13:00:35;;;;;;;20.83;9.60;;;-40.00;99.90;;;;;;5019885;28;20224;-69